METAR UND TAF INFORMATION
YPPH 180730Z 25014KT CAVOK 31/12 Q1014 NOSIG

 FLUGHAFENKARTE

 RUNWAY INFORMATION
Runway 03 Runway length 11299 ft Runway width 148 ft
Runway elevation 67 ft Runway displaced threshold 0 ft Runway heading 14
Runway 21 Runway length 11299 ft Runway width 148 ft
Runway elevation 43 ft Runway displaced threshold 0 ft Runway heading 194
Runway 06 Runway length 7096 ft Runway width 148 ft
Runway elevation 58 ft Runway displaced threshold 0 ft Runway heading 59
Runway 24 Runway length 7096 ft Runway width 148 ft
Runway elevation 58 ft Runway displaced threshold 0 ft Runway heading 239

 AIRPORT FREQUENCIES
Type APP Name APP Frequency 123.6 MHZ
Type ATIS Name ATIS Frequency 123.8 MHZ
Type CLD Name CLNC DEL Frequency 118.55 MHZ
Type DEP Name DEP Frequency 118.7 MHZ
Type FSS Name PERTH RADA Frequency 135.25 MHZ
Type GND Name GND Frequency 121.7 MHZ
Type OPS Name RAAF AIR O Frequency 897.4 MHZ
Type TWR Name TWR Frequency 120.5 MHZ

 AIRPORT NEAR NAVIGATION AIDS
Type NDB Name Caversham Frequency 329 KHZ
Type VOR-DME Name Perth Frequency 113700 KHZ
Type NDB Name Perth Frequency 272 KHZ
Type NDB Name Parkerville Frequency 352 KHZ



Version 5.0.0: Changelog

Impressum | Datenschutzerklärung

Virtual Airlines Manager